Time;durP1;ratioP1;P1;durP2;ratioP2;P2;SDS_P1;SDS_P2;PMS_P1;PMS_P2;Temp;Humidity;BMP_temperature;BMP_pressure;BME280_temperature;BME280_humidity;BME280_pressure;Samples;Min_cycle;Max_cycle;Signal;HPM_P1;HPM_P2
2021/10/20 00:00:25;;;;;;;2.78;2.58;;;10.00;99.90;;;;;;5035626;28;20239;-76
2021/10/20 00:02:54;;;;;;;2.75;2.55;;;9.90;99.90;;;;;;5031736;28;20230;-72
2021/10/20 00:05:21;;;;;;;3.38;2.70;;;9.90;99.90;;;;;;5032008;28;20710;-76
2021/10/20 00:07:49;;;;;;;2.90;2.70;;;9.90;99.90;;;;;;5039291;28;20221;-74
2021/10/20 00:10:18;;;;;;;2.70;2.50;;;9.90;99.90;;;;;;5032463;28;20269;-76
2021/10/20 00:12:46;;;;;;;3.13;2.85;;;9.80;99.90;;;;;;5037115;28;20731;-76
2021/10/20 00:15:17;;;;;;;2.95;2.75;;;9.80;99.90;;;;;;5032589;28;20231;-75
2021/10/20 00:17:44;;;;;;;3.17;2.97;;;9.80;99.90;;;;;;5029515;28;20215;-77
2021/10/20 00:20:15;;;;;;;2.75;2.55;;;9.80;99.90;;;;;;5038337;28;20226;-75
2021/10/20 00:22:43;;;;;;;2.80;2.60;;;9.80;99.90;;;;;;5036866;28;20243;-74
2021/10/20 00:25:12;;;;;;;3.17;2.97;;;9.70;99.90;;;;;;5030426;28;20227;-74
2021/10/20 00:27:39;;;;;;;3.17;2.97;;;9.70;99.90;;;;;;5033734;28;20223;-72
2021/10/20 00:30:07;;;;;;;3.15;2.95;;;9.70;99.90;;;;;;5034182;28;20252;-77
2021/10/20 00:32:36;;;;;;;3.20;2.90;;;9.70;99.90;;;;;;5032557;28;20978;-75
2021/10/20 00:35:04;;;;;;;3.08;2.88;;;9.70;99.90;;;;;;5033197;28;20281;-74
2021/10/20 00:37:31;;;;;;;3.70;3.40;;;9.70;99.90;;;;;;5036022;28;20219;-74
2021/10/20 00:39:58;;;;;;;2.97;2.78;;;9.70;99.90;;;;;;5036171;28;20231;-71
2021/10/20 00:42:25;;;;;;;3.40;3.10;;;9.60;99.90;;;;;;5032263;28;20219;-76
2021/10/20 00:44:55;;;;;;;2.83;2.58;;;9.60;99.90;;;;;;5033810;28;20725;-74
2021/10/20 00:47:23;;;;;;;3.10;2.90;;;9.60;99.90;;;;;;5036204;28;21772;-74
2021/10/20 00:49:52;;;;;;;2.80;2.60;;;9.60;99.90;;;;;;5027950;28;20223;-75
2021/10/20 00:52:20;;;;;;;3.10;2.90;;;9.60;99.90;;;;;;5034083;28;20230;-76
2021/10/20 00:54:49;;;;;;;3.13;2.92;;;9.60;99.90;;;;;;5033906;28;20216;-76
2021/10/20 00:57:17;;;;;;;2.72;2.53;;;9.60;99.90;;;;;;5032094;28;20219;-75
2021/10/20 00:59:45;;;;;;;3.30;3.10;;;9.60;99.90;;;;;;5080555;22;20232;-78
2021/10/20 01:02:12;;;;;;;3.15;2.95;;;9.60;99.90;;;;;;5073865;28;20298;-78
2021/10/20 01:04:39;;;;;;;3.45;3.15;;;9.60;99.90;;;;;;5079468;28;20238;-78
2021/10/20 01:07:08;;;;;;;3.55;2.92;;;9.50;99.90;;;;;;5081643;28;20225;-79
2021/10/20 01:09:35;;;;;;;3.25;3.00;;;9.50;99.90;;;;;;5079220;28;20708;-79
2021/10/20 01:12:02;;;;;;;2.78;2.58;;;9.50;99.90;;;;;;5078725;28;20226;-79
2021/10/20 01:14:30;;;;;;;3.10;2.80;;;9.50;99.90;;;;;;5085838;28;20642;-77
2021/10/20 01:16:58;;;;;;;2.65;2.45;;;9.50;99.90;;;;;;5079249;28;20463;-78
2021/10/20 01:19:25;;;;;;;2.85;2.65;;;9.50;99.90;;;;;;5079291;28;20644;-78
2021/10/20 01:21:54;;;;;;;6.38;3.22;;;9.50;99.90;;;;;;5077415;28;20283;-79
2021/10/20 01:24:22;;;;;;;2.88;2.67;;;9.50;99.90;;;;;;5078553;28;20635;-79
2021/10/20 01:26:49;;;;;;;2.95;2.75;;;9.50;99.90;;;;;;5084800;28;20222;-80
2021/10/20 01:29:16;;;;;;;3.15;2.92;;;9.50;99.90;;;;;;5082635;28;20667;-78
2021/10/20 01:31:46;;;;;;;3.05;2.85;;;9.40;99.90;;;;;;5086170;28;20270;-79
2021/10/20 01:34:14;;;;;;;3.40;3.10;;;9.40;99.90;;;;;;5073256;28;20229;-80
2021/10/20 01:36:41;;;;;;;3.35;3.15;;;9.30;99.90;;;;;;5083086;28;20779;-77
2021/10/20 01:39:11;;;;;;;3.22;3.00;;;9.30;99.90;;;;;;5080900;28;20233;-77
2021/10/20 01:41:38;;;;;;;3.53;3.30;;;9.30;99.90;;;;;;5075351;28;20271;-79
2021/10/20 01:44:06;;;;;;;3.58;3.38;;;9.30;99.90;;;;;;5083387;28;20657;-77
2021/10/20 01:46:33;;;;;;;3.20;3.00;;;9.30;99.90;;;;;;5077412;28;20578;-78
2021/10/20 01:49:01;;;;;;;3.00;2.80;;;9.20;99.90;;;;;;5079049;28;20230;-80
2021/10/20 01:51:28;;;;;;;3.28;3.08;;;9.20;99.90;;;;;;5077903;28;20378;-79
2021/10/20 01:53:55;;;;;;;3.63;3.33;;;9.20;99.90;;;;;;5081567;28;20225;-77
2021/10/20 01:56:24;;;;;;;3.40;3.20;;;9.20;99.90;;;;;;5082034;28;20274;-79
2021/10/20 01:58:51;;;;;;;3.75;3.38;;;9.20;99.90;;;;;;5079461;28;20241;-78
2021/10/20 02:01:18;;;;;;;3.28;3.08;;;9.20;99.90;;;;;;5084687;28;20274;-78
2021/10/20 02:03:46;;;;;;;3.80;3.50;;;9.20;99.90;;;;;;5080762;28;20218;-79
2021/10/20 02:06:18;;;;;;;3.70;3.40;;;9.30;99.90;;;;;;5076102;28;20237;-78
2021/10/20 02:08:45;;;;;;;3.50;3.30;;;9.20;99.90;;;;;;5081601;28;20252;-79
2021/10/20 02:11:13;;;;;;;4.47;4.15;;;9.20;99.90;;;;;;5080169;28;20226;-79
2021/10/20 02:13:41;;;;;;;3.38;3.08;;;9.10;99.90;;;;;;5080630;28;20217;-79
2021/10/20 02:16:09;;;;;;;3.55;2.97;;;9.10;99.90;;;;;;5085202;28;20645;-79
2021/10/20 02:18:36;;;;;;;3.55;3.20;;;9.10;99.90;;;;;;5082675;28;20225;-79
2021/10/20 02:21:04;;;;;;;3.90;3.60;;;9.10;99.90;;;;;;5079309;28;20275;-79
2021/10/20 02:23:31;;;;;;;3.47;2.90;;;9.10;99.90;;;;;;5083287;28;20279;-78
2021/10/20 02:25:58;;;;;;;3.40;3.15;;;9.10;99.90;;;;;;5077893;28;20233;-80
2021/10/20 02:28:25;;;;;;;3.92;3.53;;;9.10;99.90;;;;;;5082433;28;20645;-79
2021/10/20 02:30:54;;;;;;;3.75;3.45;;;9.00;99.90;;;;;;5078373;28;20245;-78
2021/10/20 02:33:21;;;;;;;3.58;3.30;;;9.00;99.90;;;;;;5076428;28;20222;-79
2021/10/20 02:35:48;;;;;;;4.07;3.72;;;9.00;99.90;;;;;;5079876;28;20221;-79
2021/10/20 02:38:15;;;;;;;3.78;3.47;;;9.00;99.90;;;;;;5083339;28;20213;-78
2021/10/20 02:40:42;;;;;;;3.85;3.50;;;9.00;99.90;;;;;;5081603;28;20247;-79
2021/10/20 02:43:09;;;;;;;3.53;3.22;;;8.90;99.90;;;;;;5081258;28;20672;-78
2021/10/20 02:45:36;;;;;;;3.75;3.45;;;8.90;99.90;;;;;;5084727;28;20216;-79
2021/10/20 02:48:05;;;;;;;3.42;3.22;;;8.90;99.90;;;;;;5080067;28;20286;-79
2021/10/20 02:50:32;;;;;;;3.10;2.90;;;8.90;99.90;;;;;;5088338;28;20290;-79
2021/10/20 02:53:00;;;;;;;3.58;3.08;;;8.90;99.90;;;;;;5083280;28;20225;-78
2021/10/20 02:55:27;;;;;;;3.15;2.90;;;8.90;99.90;;;;;;5082884;28;20382;-78
2021/10/20 02:57:54;;;;;;;3.42;3.13;;;8.90;99.90;;;;;;5085236;28;20228;-78
2021/10/20 03:00:21;;;;;;;3.28;2.97;;;8.90;99.90;;;;;;5086850;28;20221;-78
2021/10/20 03:02:49;;;;;;;3.15;2.95;;;8.90;99.90;;;;;;5085411;28;20225;-78
2021/10/20 03:05:17;;;;;;;4.63;3.25;;;8.90;99.90;;;;;;5082683;28;20235;-78
2021/10/20 03:07:47;;;;;;;3.30;3.10;;;8.80;99.90;;;;;;5085857;28;20229;-79
2021/10/20 03:10:14;;;;;;;6.05;3.60;;;8.80;99.90;;;;;;5081222;28;20661;-78
2021/10/20 03:12:41;;;;;;;3.83;3.50;;;8.80;99.90;;;;;;5084285;28;20248;-78
2021/10/20 03:15:09;;;;;;;3.50;3.20;;;8.80;99.90;;;;;;5082239;28;20697;-79
2021/10/20 03:17:37;;;;;;;3.33;3.05;;;8.70;99.90;;;;;;5085146;28;20233;-78
2021/10/20 03:20:08;;;;;;;3.50;3.20;;;8.80;99.90;;;;;;5088284;28;20230;-77
2021/10/20 03:22:37;;;;;;;3.90;3.60;;;8.80;99.90;;;;;;5083193;28;20217;-78
2021/10/20 03:25:06;;;;;;;3.28;3.08;;;8.80;99.90;;;;;;5067923;28;20216;-78
2021/10/20 03:27:33;;;;;;;3.50;3.20;;;8.80;99.90;;;;;;5085165;28;20300;-78
2021/10/20 03:30:00;;;;;;;3.08;2.88;;;8.80;99.90;;;;;;5085851;28;20225;-78
2021/10/20 03:32:27;;;;;;;3.20;3.00;;;8.80;99.90;;;;;;5085046;28;20225;-77
2021/10/20 03:34:54;;;;;;;3.33;3.10;;;8.80;99.90;;;;;;5079242;28;20233;-76
2021/10/20 03:37:21;;;;;;;3.08;2.78;;;8.80;99.90;;;;;;5084884;28;20229;-79
2021/10/20 03:39:50;;;;;;;3.20;3.00;;;8.80;99.90;;;;;;5088711;28;20233;-77
2021/10/20 03:42:17;;;;;;;3.00;2.80;;;8.70;99.90;;;;;;5076217;28;20634;-77
2021/10/20 03:44:44;;;;;;;3.40;3.20;;;8.70;99.90;;;;;;5083540;28;20240;-79
2021/10/20 03:47:11;;;;;;;3.30;3.10;;;8.70;99.90;;;;;;5078684;28;20588;-79
2021/10/20 03:49:38;;;;;;;3.58;3.28;;;8.70;99.90;;;;;;5075891;28;20284;-78
2021/10/20 03:52:05;;;;;;;3.50;3.20;;;8.70;99.90;;;;;;5080927;28;20796;-78
2021/10/20 03:54:32;;;;;;;3.67;3.38;;;8.70;99.90;;;;;;5084478;28;20222;-78
2021/10/20 03:57:00;;;;;;;3.30;3.10;;;8.70;99.90;;;;;;5083957;28;20225;-78
2021/10/20 03:59:28;;;;;;;3.22;3.03;;;8.70;99.90;;;;;;5083579;28;20237;-78
2021/10/20 04:01:54;;;;;;;3.60;3.30;;;8.70;99.90;;;;;;5081705;28;20241;-78
2021/10/20 04:04:22;;;;;;;3.30;3.00;;;8.60;99.90;;;;;;5074763;28;20287;-78
2021/10/20 04:06:49;;;;;;;3.67;3.38;;;8.60;99.90;;;;;;5084677;28;20225;-78
2021/10/20 04:09:16;;;;;;;4.22;3.65;;;8.60;99.90;;;;;;5082897;28;20237;-78
2021/10/20 04:11:43;;;;;;;3.15;2.95;;;8.60;99.90;;;;;;5082286;28;20271;-78
2021/10/20 04:14:11;;;;;;;3.28;3.08;;;8.60;99.90;;;;;;5080685;28;20222;-78
2021/10/20 04:16:38;;;;;;;3.53;3.30;;;8.60;99.90;;;;;;5084904;28;20257;-78
2021/10/20 04:19:05;;;;;;;3.20;3.00;;;8.60;99.90;;;;;;5084626;28;20267;-79
2021/10/20 04:21:32;;;;;;;3.72;3.45;;;8.60;99.90;;;;;;5084008;28;20275;-79
2021/10/20 04:23:59;;;;;;;3.53;3.33;;;8.60;99.90;;;;;;5082460;28;20279;-77
2021/10/20 04:26:26;;;;;;;4.10;3.53;;;8.60;99.90;;;;;;5080263;28;20230;-79
2021/10/20 04:28:53;;;;;;;3.53;3.22;;;8.60;99.90;;;;;;5080468;28;20229;-79
2021/10/20 04:31:22;;;;;;;4.03;3.63;;;8.50;99.90;;;;;;5081880;28;20274;-78
2021/10/20 04:33:49;;;;;;;3.45;3.15;;;8.50;99.90;;;;;;5082204;28;20221;-78
2021/10/20 04:36:16;;;;;;;3.92;3.63;;;8.50;99.90;;;;;;5081001;28;20226;-78
2021/10/20 04:38:43;;;;;;;4.10;3.72;;;8.50;99.90;;;;;;5078540;28;20218;-79
2021/10/20 04:41:10;;;;;;;3.72;3.42;;;8.50;99.90;;;;;;5080792;28;20781;-79
2021/10/20 04:43:37;;;;;;;3.63;3.33;;;8.50;99.90;;;;;;5082869;28;20221;-77
2021/10/20 04:46:04;;;;;;;3.95;3.65;;;8.50;99.90;;;;;;5087684;28;20754;-77
2021/10/20 04:48:33;;;;;;;3.92;3.53;;;8.50;99.90;;;;;;5085540;28;20260;-78
2021/10/20 04:51:00;;;;;;;3.35;3.15;;;8.40;99.90;;;;;;5081111;28;20866;-78
2021/10/20 04:53:27;;;;;;;4.00;3.70;;;8.40;99.90;;;;;;5077807;28;20302;-78
2021/10/20 04:55:54;;;;;;;3.50;3.30;;;8.40;99.90;;;;;;5084977;28;20218;-79
2021/10/20 04:58:21;;;;;;;3.80;3.50;;;8.30;99.90;;;;;;5082397;28;20225;-78
2021/10/20 05:00:48;;;;;;;3.78;3.55;;;8.30;99.90;;;;;;5081735;28;20252;-78
2021/10/20 05:03:15;;;;;;;3.53;3.20;;;8.30;99.90;;;;;;5079857;28;20280;-78
2021/10/20 05:05:43;;;;;;;3.92;3.63;;;8.30;99.90;;;;;;5082131;28;20225;-79
2021/10/20 05:08:10;;;;;;;4.20;3.90;;;8.30;99.90;;;;;;5084062;28;20259;-78
2021/10/20 05:10:39;;;;;;;4.03;3.60;;;8.30;99.90;;;;;;5083551;28;20229;-79
2021/10/20 05:13:07;;;;;;;3.80;3.50;;;8.30;99.90;;;;;;5079376;28;20249;-78
2021/10/20 05:15:34;;;;;;;4.18;3.88;;;8.30;99.90;;;;;;5084418;28;20225;-78
2021/10/20 05:18:01;;;;;;;4.10;3.70;;;8.30;99.90;;;;;;5073753;28;20217;-78
2021/10/20 05:20:28;;;;;;;3.47;3.17;;;8.20;99.90;;;;;;5084652;28;20303;-78
2021/10/20 05:22:56;;;;;;;3.58;3.38;;;8.20;99.90;;;;;;5082000;28;20238;-79
2021/10/20 05:25:23;;;;;;;4.53;3.70;;;8.20;99.90;;;;;;5083281;28;20243;-79
2021/10/20 05:27:51;;;;;;;3.90;3.60;;;8.20;99.90;;;;;;5085377;28;20312;-78
2021/10/20 05:30:19;;;;;;;4.72;4.32;;;8.20;99.90;;;;;;5080504;28;20275;-78
2021/10/20 05:32:46;;;;;;;3.72;3.42;;;8.20;99.90;;;;;;5081731;28;20290;-78
2021/10/20 05:35:18;;;;;;;4.03;3.63;;;8.20;99.90;;;;;;5079475;28;20291;-79
2021/10/20 05:37:46;;;;;;;4.40;4.00;;;8.20;99.90;;;;;;5079140;28;20225;-79
2021/10/20 05:40:15;;;;;;;4.25;3.90;;;8.20;99.90;;;;;;5078159;28;20244;-79
2021/10/20 05:42:42;;;;;;;4.05;3.75;;;8.20;99.90;;;;;;5080390;28;20230;-77
2021/10/20 05:45:10;;;;;;;4.63;4.22;;;8.20;99.90;;;;;;5083493;28;20209;-80
2021/10/20 05:47:38;;;;;;;4.35;3.72;;;8.20;99.90;;;;;;5079891;28;20271;-79
2021/10/20 05:50:06;;;;;;;3.85;3.55;;;8.20;99.90;;;;;;5077635;28;20225;-80
2021/10/20 05:52:33;;;;;;;4.43;4.10;;;8.20;99.90;;;;;;5085713;28;20228;-80
2021/10/20 05:55:00;;;;;;;4.50;4.10;;;8.20;99.90;;;;;;5078079;28;20218;-78
2021/10/20 05:57:29;;;;;;;4.72;4.32;;;8.20;99.90;;;;;;5082731;28;20229;-78
2021/10/20 05:59:56;;;;;;;4.50;4.20;;;8.20;99.90;;;;;;5082162;28;20249;-78
2021/10/20 06:02:23;;;;;;;4.35;3.80;;;8.20;99.90;;;;;;5081573;28;20228;-78
2021/10/20 06:04:51;;;;;;;4.55;4.15;;;8.20;99.90;;;;;;5076128;28;20238;-78
2021/10/20 06:07:18;;;;;;;4.72;4.32;;;8.30;99.90;;;;;;5079736;28;20222;-78
2021/10/20 06:09:45;;;;;;;4.55;4.15;;;8.30;99.90;;;;;;5079081;28;20238;-79
2021/10/20 06:12:12;;;;;;;4.47;4.07;;;8.30;99.90;;;;;;5078915;28;20768;-79
2021/10/20 06:14:40;;;;;;;4.22;3.83;;;8.40;99.90;;;;;;5085391;28;20263;-79
2021/10/20 06:17:07;;;;;;;4.53;4.18;;;8.50;99.90;;;;;;5074204;28;20222;-78
2021/10/20 06:19:34;;;;;;;4.03;3.72;;;8.50;99.90;;;;;;5068225;28;20233;-78
2021/10/20 06:22:02;;;;;;;4.38;3.97;;;8.50;99.90;;;;;;5070642;28;20222;-78
2021/10/20 06:24:29;;;;;;;4.15;3.85;;;8.50;99.90;;;;;;5071945;28;20228;-78
2021/10/20 06:26:56;;;;;;;4.00;3.70;;;8.50;99.90;;;;;;5068456;28;20298;-78
2021/10/20 06:29:25;;;;;;;4.25;3.85;;;8.60;99.90;;;;;;5070952;28;20667;-77
2021/10/20 06:31:53;;;;;;;4.80;4.40;;;8.60;99.90;;;;;;5074923;28;20239;-78
2021/10/20 06:34:20;;;;;;;4.30;4.00;;;8.60;99.90;;;;;;5076721;28;20217;-77
2021/10/20 06:36:47;;;;;;;3.97;3.67;;;8.60;99.90;;;;;;5071892;28;20599;-78
2021/10/20 06:39:20;;;;;;;3.92;3.63;;;8.60;99.90;;;;;;5077074;28;20240;-76
2021/10/20 06:41:47;;;;;;;4.60;4.20;;;8.60;99.90;;;;;;5072014;28;20860;-77
2021/10/20 06:44:15;;;;;;;4.53;4.13;;;8.70;99.90;;;;;;5077133;28;20308;-77
2021/10/20 06:46:42;;;;;;;4.45;4.10;;;8.70;99.90;;;;;;5067634;28;20267;-78
2021/10/20 06:49:11;;;;;;;4.22;3.90;;;8.70;99.90;;;;;;5071516;28;20233;-78
2021/10/20 06:51:38;;;;;;;4.93;4.15;;;8.80;99.90;;;;;;5077890;28;20293;-78
2021/10/20 06:54:05;;;;;;;4.88;4.47;;;8.80;99.90;;;;;;5074160;28;20245;-77
2021/10/20 06:56:32;;;;;;;6.47;5.07;;;8.90;99.90;;;;;;5071012;28;20234;-76
2021/10/20 06:58:59;;;;;;;4.50;4.10;;;9.30;99.90;;;;;;5074748;28;20307;-76
2021/10/20 07:01:28;;;;;;;4.47;4.07;;;10.10;99.90;;;;;;5062857;22;20217;-77
2021/10/20 07:03:55;;;;;;;4.45;4.05;;;10.70;99.90;;;;;;5054113;28;20260;-75
2021/10/20 07:06:27;;;;;;;4.70;4.30;;;11.20;99.90;;;;;;5054289;28;20285;-77
2021/10/20 07:08:55;;;;;;;4.60;4.20;;;11.80;99.90;;;;;;5055193;28;20233;-78
2021/10/20 07:11:22;;;;;;;5.68;4.82;;;12.30;99.90;;;;;;5055024;28;20701;-75
2021/10/20 07:13:49;;;;;;;4.90;4.50;;;12.70;99.90;;;;;;5060591;28;20724;-77
2021/10/20 07:16:16;;;;;;;4.82;4.43;;;13.10;99.90;;;;;;5055835;28;20711;-80
2021/10/20 07:18:43;;;;;;;5.22;4.78;;;13.40;99.90;;;;;;5056713;28;20217;-77
2021/10/20 07:21:11;;;;;;;5.82;4.93;;;13.50;99.90;;;;;;5057238;28;20291;-77
2021/10/20 07:23:40;;;;;;;5.32;4.82;;;13.80;99.90;;;;;;5056420;28;20230;-74
2021/10/20 07:26:08;;;;;;;7.40;5.40;;;14.10;99.90;;;;;;5057036;28;20224;-76
2021/10/20 07:28:35;;;;;;;4.90;4.50;;;14.50;99.90;;;;;;5056756;28;20233;-79
2021/10/20 07:31:02;;;;;;;4.85;4.43;;;14.80;99.90;;;;;;5058249;28;20236;-77
2021/10/20 07:33:29;;;;;;;5.15;4.00;;;15.00;99.90;;;;;;5054847;28;20260;-77
2021/10/20 07:35:56;;;;;;;5.55;5.00;;;15.20;99.90;;;;;;5054854;28;20654;-79
2021/10/20 07:38:23;;;;;;;5.03;4.53;;;15.50;99.90;;;;;;5051875;28;20592;-76
2021/10/20 07:40:52;;;;;;;6.60;4.60;;;15.80;99.90;;;;;;5048063;28;20248;-77
2021/10/20 07:43:19;;;;;;;5.22;4.72;;;15.80;99.90;;;;;;5052514;28;20238;-78
2021/10/20 07:45:46;;;;;;;5.13;4.72;;;15.40;99.90;;;;;;5049744;28;20226;-78
2021/10/20 07:48:13;;;;;;;5.00;4.50;;;14.90;99.90;;;;;;5045677;28;20229;-78
2021/10/20 07:50:42;;;;;;;4.78;4.38;;;14.60;99.90;;;;;;5043311;28;20233;-78
2021/10/20 07:53:09;;;;;;;4.40;4.00;;;14.30;99.90;;;;;;5049328;28;20499;-76
2021/10/20 07:55:37;;;;;;;4.53;4.13;;;14.10;99.90;;;;;;5046472;28;20260;-76
2021/10/20 07:58:05;;;;;;;4.70;4.10;;;13.90;99.90;;;;;;5052538;28;20221;-77
2021/10/20 08:00:32;;;;;;;4.45;4.05;;;13.70;99.90;;;;;;5047727;28;20623;-77
2021/10/20 08:03:01;;;;;;;4.63;4.18;;;13.70;99.90;;;;;;5042864;28;20264;-77
2021/10/20 08:05:28;;;;;;;4.25;3.92;;;14.10;99.90;;;;;;5044424;28;20227;-76
2021/10/20 08:07:58;;;;;;;5.45;4.65;;;14.50;99.90;;;;;;5044096;28;20242;-75
2021/10/20 08:10:27;;;;;;;4.75;4.07;;;15.10;99.90;;;;;;5044474;28;20720;-76
2021/10/20 08:12:55;;;;;;;5.03;4.53;;;15.60;99.90;;;;;;5046210;28;20284;-76
2021/10/20 08:15:24;;;;;;;6.45;4.38;;;16.10;99.90;;;;;;5048551;28;20721;-77
2021/10/20 08:17:52;;;;;;;5.57;4.93;;;16.20;99.90;;;;;;5046378;28;20230;-78
2021/10/20 08:20:21;;;;;;;5.82;4.85;;;16.10;99.90;;;;;;5048740;28;20743;-77
2021/10/20 08:22:49;;;;;;;5.00;4.00;;;16.10;99.90;;;;;;5046057;28;20311;-76
2021/10/20 08:25:17;;;;;;;4.70;4.30;;;16.30;99.90;;;;;;5048049;28;20230;-79
2021/10/20 08:27:44;;;;;;;5.07;4.53;;;16.30;99.90;;;;;;5046075;28;20750;-74
2021/10/20 08:30:16;;;;;;;5.32;4.68;;;16.40;99.90;;;;;;5046291;28;20230;-79
2021/10/20 08:32:48;;;;;;;4.60;4.20;;;16.60;99.90;;;;;;5047490;28;20228;-76
2021/10/20 08:35:16;;;;;;;4.82;4.43;;;16.70;99.90;;;;;;5045279;28;20227;-75
2021/10/20 08:37:44;;;;;;;5.10;4.30;;;16.70;99.90;;;;;;5046925;28;20279;-74
2021/10/20 08:40:12;;;;;;;4.93;4.47;;;16.90;99.90;;;;;;5047375;28;20247;-77
2021/10/20 08:42:40;;;;;;;5.03;4.50;;;16.90;99.90;;;;;;5048824;28;20309;-77
2021/10/20 08:45:08;;;;;;;4.93;4.53;;;16.70;99.90;;;;;;5045969;28;20715;-75
2021/10/20 08:47:37;;;;;;;5.38;4.63;;;16.60;99.90;;;;;;5047830;28;20272;-74
2021/10/20 08:50:07;;;;;;;4.70;4.30;;;16.60;99.90;;;;;;5045359;28;20342;-77
2021/10/20 08:52:35;;;;;;;4.32;4.00;;;16.80;99.90;;;;;;5048587;28;20233;-77
2021/10/20 08:55:03;;;;;;;4.50;4.00;;;17.30;99.90;;;;;;5047523;28;20227;-78
2021/10/20 08:57:30;;;;;;;5.22;4.72;;;17.70;99.90;;;;;;5043114;28;20211;-77
2021/10/20 09:00:00;;;;;;;6.85;4.45;;;17.80;99.90;;;;;;5047840;28;20266;-82
2021/10/20 09:02:28;;;;;;;6.57;4.80;;;17.80;99.90;;;;;;5041691;28;20230;-79
2021/10/20 09:04:55;;;;;;;4.93;4.43;;;17.90;99.90;;;;;;5045981;28;20282;-79
2021/10/20 09:07:23;;;;;;;5.90;5.30;;;17.80;99.90;;;;;;5053414;28;20296;-79
2021/10/20 09:09:54;;;;;;;5.32;4.82;;;17.90;99.90;;;;;;5047771;28;20241;-79
2021/10/20 09:12:30;;;;;;;5.32;4.82;;;17.90;99.90;;;;;;5045129;28;20230;-78
2021/10/20 09:15:02;;;;;;;6.65;5.07;;;17.70;99.90;;;;;;5045310;28;20752;-79
2021/10/20 09:17:44;;;;;;;8.35;4.90;;;17.50;99.90;;;;;;5041287;28;20237;-75
2021/10/20 09:20:25;;;;;;;5.20;4.70;;;17.70;99.90;;;;;;5046949;28;20249;-76
2021/10/20 09:23:13;;;;;;;5.88;5.13;;;18.00;99.90;;;;;;5040201;28;20380;-78
2021/10/20 09:25:45;;;;;;;6.75;4.45;;;17.90;99.90;;;;;;5040899;28;20635;-75
2021/10/20 09:28:14;;;;;;;4.65;4.22;;;18.00;99.90;;;;;;5041275;28;20589;-75
2021/10/20 09:30:42;;;;;;;5.22;4.72;;;18.00;99.90;;;;;;5046875;28;20551;-76
2021/10/20 09:33:10;;;;;;;5.50;4.53;;;18.20;99.90;;;;;;5044045;28;20222;-75
2021/10/20 09:35:38;;;;;;;5.15;4.65;;;18.50;99.90;;;;;;5046819;28;20229;-77
2021/10/20 09:38:06;;;;;;;6.80;4.82;;;18.60;99.90;;;;;;5046365;28;20221;-74
2021/10/20 09:40:38;;;;;;;5.13;4.47;;;18.50;99.90;;;;;;5042656;28;20789;-73
2021/10/20 09:43:08;;;;;;;5.60;4.93;;;18.30;99.90;;;;;;5041363;28;20717;-76
2021/10/20 09:45:37;;;;;;;5.47;4.93;;;18.30;99.90;;;;;;5046647;28;20522;-75
2021/10/20 09:48:25;;;;;;;9.35;4.57;;;18.10;99.90;;;;;;5042009;28;20234;-77
2021/10/20 09:50:58;;;;;;;5.95;4.80;;;18.20;99.90;;;;;;5041895;28;20214;-75
2021/10/20 09:53:27;;;;;;;4.82;4.38;;;18.20;99.90;;;;;;5048252;28;20284;-75
2021/10/20 09:55:55;;;;;;;7.35;5.15;;;18.20;99.90;;;;;;5041261;28;21469;-75
2021/10/20 09:58:24;;;;;;;5.45;4.95;;;18.50;99.90;;;;;;5044413;28;20218;-73
2021/10/20 10:00:55;;;;;;;4.93;4.50;;;18.70;99.90;;;;;;5047122;28;20231;-76
2021/10/20 10:03:22;;;;;;;5.53;5.03;;;18.70;99.90;;;;;;5049494;28;20316;-78
2021/10/20 10:05:49;;;;;;;5.65;5.13;;;18.80;99.90;;;;;;5041673;28;20226;-76
2021/10/20 10:08:16;;;;;;;6.38;5.25;;;18.70;99.90;;;;;;5046498;28;20695;-79
2021/10/20 10:10:44;;;;;;;5.68;4.90;;;18.70;99.90;;;;;;5048213;28;20276;-76
2021/10/20 10:13:17;;;;;;;6.43;5.00;;;18.60;99.90;;;;;;5047185;28;20218;-77
2021/10/20 10:15:46;;;;;;;6.25;5.65;;;18.50;99.90;;;;;;5045810;28;20519;-77
2021/10/20 10:18:14;;;;;;;4.72;4.32;;;18.50;99.90;;;;;;5049325;28;20218;-77
2021/10/20 10:20:43;;;;;;;5.38;4.88;;;18.30;99.90;;;;;;5049727;28;20315;-76
2021/10/20 10:23:20;;;;;;;5.47;4.90;;;18.00;99.90;;;;;;5048661;28;20232;-75
2021/10/20 10:25:56;;;;;;;5.50;5.00;;;17.80;99.90;;;;;;5052686;28;20290;-79
2021/10/20 10:28:26;;;;;;;6.95;4.97;;;18.00;99.90;;;;;;5046861;28;20412;-79
2021/10/20 10:30:56;;;;;;;5.18;4.45;;;18.20;99.90;;;;;;5047133;28;20652;-74
2021/10/20 10:33:25;;;;;;;5.85;5.25;;;18.70;99.90;;;;;;5040906;28;20226;-78
2021/10/20 10:36:18;;;;;;;6.55;5.22;;;18.90;99.90;;;;;;5046672;28;20240;-75
2021/10/20 10:38:48;;;;;;;5.40;4.85;;;19.00;99.90;;;;;;5045257;28;20568;-74
2021/10/20 10:41:24;;;;;;;6.85;6.10;;;19.00;99.90;;;;;;5050336;28;20284;-74
2021/10/20 10:44:15;;;;;;;6.90;5.18;;;18.70;99.90;;;;;;5043116;28;20283;-75
2021/10/20 10:46:53;;;;;;;6.70;5.45;;;18.70;99.90;;;;;;5044316;28;20222;-75
2021/10/20 10:49:28;;;;;;;6.22;5.07;;;18.60;99.90;;;;;;5045541;28;20763;-75
2021/10/20 10:52:51;;;;;;;7.78;6.07;;;18.30;99.90;;;;;;5045546;28;20613;-75
2021/10/20 10:55:20;;;;;;;5.72;4.88;;;18.10;99.90;;;;;;5005042;28;20231;-76
2021/10/20 10:57:52;;;;;;;6.10;5.50;;;18.00;99.90;;;;;;5029479;28;20226;-74
2021/10/20 11:00:47;;;;;;;6.28;5.38;;;17.80;99.90;;;;;;5043583;28;20288;-79
2021/10/20 11:03:21;;;;;;;6.15;5.32;;;17.70;99.90;;;;;;5039230;28;20715;-75
2021/10/20 11:05:51;;;;;;;6.95;6.35;;;17.70;99.90;;;;;;5042864;28;20596;-76
2021/10/20 11:08:18;;;;;;;8.07;5.00;;;17.40;99.90;;;;;;5042999;28;20760;-76
2021/10/20 11:10:45;;;;;;;5.75;5.13;;;17.50;99.90;;;;;;5047563;28;20233;-76
2021/10/20 11:13:13;;;;;;;7.35;6.07;;;17.50;99.90;;;;;;5046602;28;21426;-74
2021/10/20 11:15:42;;;;;;;8.05;5.90;;;17.70;99.90;;;;;;5048243;28;20210;-77
2021/10/20 11:18:09;;;;;;;6.32;5.70;;;17.50;99.90;;;;;;5046955;28;20225;-77
2021/10/20 11:20:42;;;;;;;5.80;5.28;;;17.40;99.90;;;;;;5044620;28;20225;-80
2021/10/20 11:23:11;;;;;;;6.63;6.03;;;17.40;99.90;;;;;;5048304;28;20277;-74
2021/10/20 11:25:39;;;;;;;6.88;5.47;;;17.50;99.90;;;;;;5044587;28;20238;-76
2021/10/20 11:28:08;;;;;;;5.53;5.03;;;17.70;99.90;;;;;;5047925;28;20249;-74
2021/10/20 11:30:36;;;;;;;6.07;5.25;;;18.00;99.90;;;;;;5047975;28;20700;-75
2021/10/20 11:33:09;;;;;;;6.57;5.47;;;18.40;99.90;;;;;;5043861;28;20648;-73
2021/10/20 11:35:36;;;;;;;6.70;6.00;;;19.00;99.90;;;;;;5046275;28;20658;-75
2021/10/20 11:38:08;;;;;;;6.70;6.10;;;19.30;99.90;;;;;;5051710;28;20233;-74
2021/10/20 11:40:38;;;;;;;7.70;6.78;;;19.30;99.90;;;;;;5054783;28;20543;-76
2021/10/20 11:43:13;;;;;;;9.20;6.72;;;19.50;99.90;;;;;;5043207;28;20222;-75
2021/10/20 11:45:40;;;;;;;8.30;6.13;;;19.60;99.90;;;;;;5051974;28;20681;-74
2021/10/20 11:48:09;;;;;;;7.20;6.30;;;19.60;99.90;;;;;;5041422;28;20291;-75
2021/10/20 11:50:37;;;;;;;6.30;5.70;;;19.60;99.90;;;;;;5051339;28;20227;-73
2021/10/20 11:53:07;;;;;;;7.57;6.88;;;19.50;99.90;;;;;;5048565;28;20221;-74
2021/10/20 11:55:41;;;;;;;8.55;7.68;;;19.20;99.90;;;;;;5045047;28;20224;-73
2021/10/20 11:58:08;;;;;;;8.18;7.38;;;19.00;99.90;;;;;;5043329;28;20850;-75
2021/10/20 12:00:35;;;;;;;7.63;6.90;;;18.70;99.90;;;;;;5047709;28;20697;-76
2021/10/20 12:03:02;;;;;;;10.80;8.20;;;18.60;99.90;;;;;;5053375;28;20218;-74
2021/10/20 12:05:30;;;;;;;8.63;7.65;;;18.50;99.90;;;;;;5048969;28;20913;-74
2021/10/20 12:07:59;;;;;;;10.23;7.80;;;18.60;99.90;;;;;;5046642;28;20226;-75
2021/10/20 12:10:26;;;;;;;9.40;8.50;;;18.70;99.90;;;;;;5048216;28;20246;-74
2021/10/20 12:12:53;;;;;;;7.15;6.50;;;18.70;99.90;;;;;;5049428;28;20280;-73
2021/10/20 12:15:22;;;;;;;7.90;7.20;;;19.00;99.90;;;;;;5047186;28;20264;-73
2021/10/20 12:17:51;;;;;;;7.65;6.95;;;19.20;99.90;;;;;;5051324;28;20237;-74
2021/10/20 12:20:19;;;;;;;8.40;7.03;;;19.40;99.90;;;;;;5040031;28;20479;-74
2021/10/20 12:22:49;;;;;;;8.63;7.22;;;19.80;99.90;;;;;;5046045;28;20336;-75
2021/10/20 12:25:18;;;;;;;7.88;7.10;;;20.00;99.90;;;;;;5047383;28;20955;-74
2021/10/20 12:27:45;;;;;;;7.68;6.97;;;20.30;99.90;;;;;;5050791;28;20221;-75
2021/10/20 12:30:14;;;;;;;9.13;7.43;;;20.50;99.90;;;;;;5042462;28;20238;-75
2021/10/20 12:32:41;;;;;;;10.63;7.22;;;20.40;99.90;;;;;;5044983;28;21597;-75
2021/10/20 12:35:11;;;;;;;8.32;7.53;;;20.40;99.90;;;;;;5055041;28;20230;-75
2021/10/20 12:37:40;;;;;;;8.55;7.75;;;20.20;99.90;;;;;;5046588;28;20214;-74
2021/10/20 12:40:10;;;;;;;9.45;8.45;;;19.90;99.90;;;;;;5043561;28;20233;-75
2021/10/20 12:42:44;;;;;;;13.35;9.40;;;19.60;99.90;;;;;;5043215;28;20224;-76
2021/10/20 12:45:13;;;;;;;10.00;8.70;;;19.30;99.90;;;;;;5047853;28;20299;-72
2021/10/20 12:47:45;;;;;;;8.52;7.68;;;19.10;99.90;;;;;;5047517;28;20237;-75
2021/10/20 12:50:14;;;;;;;9.25;8.00;;;19.10;99.90;;;;;;5047081;28;22120;-74
2021/10/20 12:52:42;;;;;;;8.15;7.35;;;19.00;99.90;;;;;;5046038;28;20218;-76
2021/10/20 12:55:14;;;;;;;8.30;7.57;;;18.90;99.90;;;;;;5048167;28;20223;-76
2021/10/20 12:57:43;;;;;;;11.52;8.73;;;18.80;99.90;;;;;;5043573;28;20230;-75
2021/10/20 13:00:13;;;;;;;9.13;8.23;;;18.50;99.90;;;;;;5043782;28;20225;-76